Menlo Park, CA

9:26 PM PDT on September 16, 2014 (GMT -0700)
Allied Arts | Change Station
CLOSE
Current Station
Personal Weather Station
Location: Menlo Park, CA
Elevation: 70 ft
Nearby Weather Stations

Elev 70 ft 37.44 °N, 122.18 °W | Updated 4 seconds ago

Partly Cloudy
Partly Cloudy
66.8 °F
Feels Like 66.8 °F
N
0.0
Wind Variable Wind from NE
Gusts 0.0 mph

Today
High -- | Low -- °F
--% Chance of Precip.
Yesterday
High -- | Low -- °F
Precip. -- in
6:51 AM 7:14 PM
Last Quarter, 39% visible
Pressure 29.81 in
Visibility 10.0 miles
Clouds Scattered Clouds 15000 ft
Dew Point 55 °F
Humidity 66%
Rainfall 0.00 in
Snow Depth 0 in , 0 in , 0 in
UV 0.0 out of 12
Pollen 5.20 out of 12
Air Quality Not available.
Flu Activity Not available.
METAR KPAO 170247Z 34010KT 10SM SCT150 21/17 A2981

More Conditions Fewer Conditions

Pressure 29.81 in
Visibility 10.0 miles
Clouds Scattered Clouds 15000 ft
Dew Point 55 °F
Humidity 66%
Rainfall 0.00 in
Snow Depth 0 in , 0 in , 0 in
UV 0.0 out of 12
Pollen 5.20 out of 12
Air Quality Not available.
Flu Activity Not available.
METAR KPAO 170247Z 34010KT 10SM SCT150 21/17 A2981

More Conditions Fewer Conditions

10-Day Weather Forecast

Almanac

Astronomy

Sep. 16, 2014 Rise Set
Actual Time 6:51 AM PDT 7:14 PM PDT
Civil Twilight 6:25 AM PDT 7:40 PM PDT
Nautical Twilight 5:54 AM PDT 8:11 PM PDT
Astronomical Twilight 5:23 AM PDT 8:42 PM PDT
Moon 12:11 AM PDT (9/16) 2:37 PM PDT (9/16)
Length of Visible Light 13h 15m
Length of Day
12h 23m
Tomorrow will be 2m 23s shorter.
Last Quarter, 39% of the Moon is Illuminated
Sep 17
Last Quarter
Sep 24
New
Oct 1
First Quarter
Oct 8
Full
Oct 15
Last Quarter

Today's Extremes

State Highs State Lows

Community

WunderPhotos

Upload Photos

1,753,965 photos uploaded!

Nearby

Air Quality

  Air Quality AQ Index Pollutant
Yesterday Good
PM2.5
Yesterday Good
OZONE
Tuesday Good
PM2.5
Wednesday Good
OZONE
Thursday Good
OZONE
Friday Good
OZONE
Saturday Good
OZONE
Sunday Good
OZONE

Snow Depth

Station Depth Elevation
Echo Peak 0 in 7800 ft
Forestdale Creek 0 in 8029 ft
Tahoe City Cross 0 in 6750 ft
Leavitt Meadows 0 in 7200 ft
CSS Lab 2 in 6900 ft

Earthquake Activity

City Distance Mag. Time & Date
Cobb, California 97 miles 2.7 1:23 PM PDT
2014-09-16
Cobb, California 100 miles 2.7 11:07 AM PDT
2014-09-14
Minimum magnitude displayed is 2.5.

Coastal Water Temperatures

Place Temperature
No Stations Reporting

Nearby Weather Stations